sensor_id;sensor_type;location;lat;lon;timestamp;temperature;humidity
42743;DHT22;28397;44.552;-0.848;2023-07-22T00:02:17;19.70;99.90
42743;DHT22;28397;44.552;-0.848;2023-07-22T00:04:42;19.90;99.90
42743;DHT22;28397;44.552;-0.848;2023-07-22T00:07:08;20.00;99.90
42743;DHT22;28397;44.552;-0.848;2023-07-22T00:09:34;20.00;99.90
42743;DHT22;28397;44.552;-0.848;2023-07-22T00:12:00;19.80;99.90
42743;DHT22;28397;44.552;-0.848;2023-07-22T00:14:26;19.70;99.90
42743;DHT22;28397;44.552;-0.848;2023-07-22T00:16:51;19.70;99.90
42743;DHT22;28397;44.552;-0.848;2023-07-22T00:19:17;19.70;99.90
42743;DHT22;28397;44.552;-0.848;2023-07-22T00:21:43;19.70;99.90
42743;DHT22;28397;44.552;-0.848;2023-07-22T00:24:09;19.50;99.90
42743;DHT22;28397;44.552;-0.848;2023-07-22T00:26:36;19.20;99.90
42743;DHT22;28397;44.552;-0.848;2023-07-22T00:29:02;19.00;99.90
42743;DHT22;28397;44.552;-0.848;2023-07-22T00:31:28;18.90;99.90
42743;DHT22;28397;44.552;-0.848;2023-07-22T00:33:53;18.70;99.90
42743;DHT22;28397;44.552;-0.848;2023-07-22T00:36:19;18.70;99.90
42743;DHT22;28397;44.552;-0.848;2023-07-22T00:38:45;18.50;99.90
42743;DHT22;28397;44.552;-0.848;2023-07-22T00:41:10;18.30;99.90
42743;DHT22;28397;44.552;-0.848;2023-07-22T00:43:37;18.30;99.90
42743;DHT22;28397;44.552;-0.848;2023-07-22T00:46:04;18.20;99.90
42743;DHT22;28397;44.552;-0.848;2023-07-22T00:48:30;18.00;99.90
42743;DHT22;28397;44.552;-0.848;2023-07-22T00:50:56;17.90;99.90
42743;DHT22;28397;44.552;-0.848;2023-07-22T00:53:22;17.80;99.90
42743;DHT22;28397;44.552;-0.848;2023-07-22T00:55:47;17.70;99.90
42743;DHT22;28397;44.552;-0.848;2023-07-22T00:58:14;17.70;99.90
42743;DHT22;28397;44.552;-0.848;2023-07-22T01:00:40;17.70;99.90
42743;DHT22;28397;44.552;-0.848;2023-07-22T01:03:06;17.50;99.90
42743;DHT22;28397;44.552;-0.848;2023-07-22T01:05:34;17.50;99.90
42743;DHT22;28397;44.552;-0.848;2023-07-22T01:08:01;17.60;99.90
42743;DHT22;28397;44.552;-0.848;2023-07-22T01:10:27;17.80;99.90
42743;DHT22;28397;44.552;-0.848;2023-07-22T01:12:56;17.90;99.90
42743;DHT22;28397;44.552;-0.848;2023-07-22T01:15:22;18.00;99.90
42743;DHT22;28397;44.552;-0.848;2023-07-22T01:17:49;18.00;99.90
42743;DHT22;28397;44.552;-0.848;2023-07-22T01:20:15;18.00;99.90
42743;DHT22;28397;44.552;-0.848;2023-07-22T01:22:48;18.10;99.90
42743;DHT22;28397;44.552;-0.848;2023-07-22T01:25:15;18.10;99.90
42743;DHT22;28397;44.552;-0.848;2023-07-22T01:27:41;18.00;99.90
42743;DHT22;28397;44.552;-0.848;2023-07-22T01:30:07;18.10;99.90
42743;DHT22;28397;44.552;-0.848;2023-07-22T01:32:35;17.90;99.90
42743;DHT22;28397;44.552;-0.848;2023-07-22T01:35:00;17.90;99.90
42743;DHT22;28397;44.552;-0.848;2023-07-22T01:37:26;17.70;99.90
42743;DHT22;28397;44.552;-0.848;2023-07-22T01:39:52;17.40;99.90
42743;DHT22;28397;44.552;-0.848;2023-07-22T01:42:18;17.30;99.90
42743;DHT22;28397;44.552;-0.848;2023-07-22T01:44:44;17.20;99.90
42743;DHT22;28397;44.552;-0.848;2023-07-22T01:47:09;17.10;99.90
42743;DHT22;28397;44.552;-0.848;2023-07-22T01:49:35;17.00;99.90
42743;DHT22;28397;44.552;-0.848;2023-07-22T01:52:01;17.00;99.90
42743;DHT22;28397;44.552;-0.848;2023-07-22T01:54:26;16.90;99.90
42743;DHT22;28397;44.552;-0.848;2023-07-22T01:56:52;16.90;99.90
42743;DHT22;28397;44.552;-0.848;2023-07-22T01:59:18;16.80;99.90
42743;DHT22;28397;44.552;-0.848;2023-07-22T02:01:43;16.70;99.90
42743;DHT22;28397;44.552;-0.848;2023-07-22T02:04:09;16.70;99.90
42743;DHT22;28397;44.552;-0.848;2023-07-22T02:06:36;16.60;99.90
42743;DHT22;28397;44.552;-0.848;2023-07-22T02:09:02;16.60;99.90
42743;DHT22;28397;44.552;-0.848;2023-07-22T02:11:35;16.60;99.90
42743;DHT22;28397;44.552;-0.848;2023-07-22T02:14:01;16.50;99.90
42743;DHT22;28397;44.552;-0.848;2023-07-22T02:16:26;16.60;99.90
42743;DHT22;28397;44.552;-0.848;2023-07-22T02:18:52;16.50;99.90
42743;DHT22;28397;44.552;-0.848;2023-07-22T02:21:18;16.60;99.90
42743;DHT22;28397;44.552;-0.848;2023-07-22T02:23:43;16.80;99.90
42743;DHT22;28397;44.552;-0.848;2023-07-22T02:26:09;16.90;99.90
42743;DHT22;28397;44.552;-0.848;2023-07-22T02:28:35;17.10;99.90
42743;DHT22;28397;44.552;-0.848;2023-07-22T02:31:02;17.10;99.90
42743;DHT22;28397;44.552;-0.848;2023-07-22T02:33:29;17.20;99.90
42743;DHT22;28397;44.552;-0.848;2023-07-22T02:35:55;17.30;99.90
42743;DHT22;28397;44.552;-0.848;2023-07-22T02:38:21;17.20;99.90
42743;DHT22;28397;44.552;-0.848;2023-07-22T02:40:47;17.30;99.90
42743;DHT22;28397;44.552;-0.848;2023-07-22T02:43:12;17.30;99.90
42743;DHT22;28397;44.552;-0.848;2023-07-22T02:45:38;17.40;99.90
42743;DHT22;28397;44.552;-0.848;2023-07-22T02:48:04;17.40;99.90
42743;DHT22;28397;44.552;-0.848;2023-07-22T02:50:30;17.30;99.90
42743;DHT22;28397;44.552;-0.848;2023-07-22T02:52:56;17.00;99.90
42743;DHT22;28397;44.552;-0.848;2023-07-22T02:55:21;17.00;99.90
42743;DHT22;28397;44.552;-0.848;2023-07-22T02:57:48;16.70;99.90
42743;DHT22;28397;44.552;-0.848;2023-07-22T03:00:16;16.60;99.90
42743;DHT22;28397;44.552;-0.848;2023-07-22T03:02:55;16.60;99.90
42743;DHT22;28397;44.552;-0.848;2023-07-22T03:05:27;16.60;99.90
42743;DHT22;28397;44.552;-0.848;2023-07-22T03:07:53;16.60;99.90
42743;DHT22;28397;44.552;-0.848;2023-07-22T03:10:19;16.60;99.90
42743;DHT22;28397;44.552;-0.848;2023-07-22T03:12:45;16.60;99.90
42743;DHT22;28397;44.552;-0.848;2023-07-22T03:15:11;16.50;99.90
42743;DHT22;28397;44.552;-0.848;2023-07-22T03:17:39;16.50;99.90
42743;DHT22;28397;44.552;-0.848;2023-07-22T03:20:05;16.50;99.90
42743;DHT22;28397;44.552;-0.848;2023-07-22T03:22:42;16.40;99.90
42743;DHT22;28397;44.552;-0.848;2023-07-22T03:25:09;16.40;99.90
42743;DHT22;28397;44.552;-0.848;2023-07-22T03:27:36;16.40;99.90
42743;DHT22;28397;44.552;-0.848;2023-07-22T03:30:03;16.30;99.90
42743;DHT22;28397;44.552;-0.848;2023-07-22T03:32:29;16.30;99.90
42743;DHT22;28397;44.552;-0.848;2023-07-22T03:34:55;16.30;99.90
42743;DHT22;28397;44.552;-0.848;2023-07-22T03:37:20;16.40;99.90
42743;DHT22;28397;44.552;-0.848;2023-07-22T03:39:46;16.70;99.90
42743;DHT22;28397;44.552;-0.848;2023-07-22T03:42:12;16.80;99.90
42743;DHT22;28397;44.552;-0.848;2023-07-22T03:44:37;16.90;99.90
42743;DHT22;28397;44.552;-0.848;2023-07-22T03:47:03;16.90;99.90
42743;DHT22;28397;44.552;-0.848;2023-07-22T03:49:29;17.00;99.90
42743;DHT22;28397;44.552;-0.848;2023-07-22T03:51:54;17.00;99.90
42743;DHT22;28397;44.552;-0.848;2023-07-22T03:54:20;17.00;99.90
42743;DHT22;28397;44.552;-0.848;2023-07-22T03:56:45;17.00;99.90
42743;DHT22;28397;44.552;-0.848;2023-07-22T03:59:11;17.00;99.90
42743;DHT22;28397;44.552;-0.848;2023-07-22T04:01:37;17.00;99.90
42743;DHT22;28397;44.552;-0.848;2023-07-22T04:04:03;17.00;99.90
42743;DHT22;28397;44.552;-0.848;2023-07-22T04:06:29;16.80;99.90
42743;DHT22;28397;44.552;-0.848;2023-07-22T04:08:54;16.60;99.90
42743;DHT22;28397;44.552;-0.848;2023-07-22T04:11:20;16.40;99.90
42743;DHT22;28397;44.552;-0.848;2023-07-22T04:13:45;16.30;99.90
42743;DHT22;28397;44.552;-0.848;2023-07-22T04:16:11;16.30;99.90
42743;DHT22;28397;44.552;-0.848;2023-07-22T04:18:37;16.30;99.90
42743;DHT22;28397;44.552;-0.848;2023-07-22T04:21:02;16.30;99.90
42743;DHT22;28397;44.552;-0.848;2023-07-22T04:23:28;16.20;99.90
42743;DHT22;28397;44.552;-0.848;2023-07-22T04:25:54;16.20;99.90
42743;DHT22;28397;44.552;-0.848;2023-07-22T04:28:19;16.10;99.90
42743;DHT22;28397;44.552;-0.848;2023-07-22T04:30:55;16.10;99.90
42743;DHT22;28397;44.552;-0.848;2023-07-22T04:33:21;16.00;99.90
42743;DHT22;28397;44.552;-0.848;2023-07-22T04:35:46;16.00;99.90
42743;DHT22;28397;44.552;-0.848;2023-07-22T04:38:12;16.00;99.90
42743;DHT22;28397;44.552;-0.848;2023-07-22T04:40:42;16.00;99.90
42743;DHT22;28397;44.552;-0.848;2023-07-22T04:43:08;16.10;99.90
42743;DHT22;28397;44.552;-0.848;2023-07-22T04:45:34;16.00;99.90
42743;DHT22;28397;44.552;-0.848;2023-07-22T04:48:01;15.90;99.90
42743;DHT22;28397;44.552;-0.848;2023-07-22T04:50:27;15.90;99.90
42743;DHT22;28397;44.552;-0.848;2023-07-22T04:52:55;15.80;99.90
42743;DHT22;28397;44.552;-0.848;2023-07-22T04:55:21;16.20;99.90
42743;DHT22;28397;44.552;-0.848;2023-07-22T04:57:47;16.30;99.90
42743;DHT22;28397;44.552;-0.848;2023-07-22T05:00:13;16.50;99.90
42743;DHT22;28397;44.552;-0.848;2023-07-22T05:02:42;16.60;99.90
42743;DHT22;28397;44.552;-0.848;2023-07-22T05:05:12;16.60;99.90
42743;DHT22;28397;44.552;-0.848;2023-07-22T05:07:38;16.80;99.90
42743;DHT22;28397;44.552;-0.848;2023-07-22T05:10:04;16.80;99.90
42743;DHT22;28397;44.552;-0.848;2023-07-22T05:12:30;16.80;99.90
42743;DHT22;28397;44.552;-0.848;2023-07-22T05:14:55;16.80;99.90
42743;DHT22;28397;44.552;-0.848;2023-07-22T05:17:21;16.90;99.90
42743;DHT22;28397;44.552;-0.848;2023-07-22T05:19:47;17.00;99.90
42743;DHT22;28397;44.552;-0.848;2023-07-22T05:22:14;16.80;99.90
42743;DHT22;28397;44.552;-0.848;2023-07-22T05:24:40;16.70;99.90
42743;DHT22;28397;44.552;-0.848;2023-07-22T05:27:06;16.70;99.90
42743;DHT22;28397;44.552;-0.848;2023-07-22T05:29:31;16.60;99.90
42743;DHT22;28397;44.552;-0.848;2023-07-22T05:31:57;16.60;99.90
42743;DHT22;28397;44.552;-0.848;2023-07-22T05:34:23;16.60;99.90
42743;DHT22;28397;44.552;-0.848;2023-07-22T05:36:48;16.50;99.90
42743;DHT22;28397;44.552;-0.848;2023-07-22T05:39:14;16.50;99.90
42743;DHT22;28397;44.552;-0.848;2023-07-22T05:41:43;16.60;99.90
42743;DHT22;28397;44.552;-0.848;2023-07-22T05:44:08;16.60;99.90
42743;DHT22;28397;44.552;-0.848;2023-07-22T05:46:34;16.60;99.90
42743;DHT22;28397;44.552;-0.848;2023-07-22T05:48:59;16.70;99.90
42743;DHT22;28397;44.552;-0.848;2023-07-22T05:51:26;16.70;99.90
42743;DHT22;28397;44.552;-0.848;2023-07-22T05:53:51;16.80;99.90
42743;DHT22;28397;44.552;-0.848;2023-07-22T05:56:17;16.80;99.90
42743;DHT22;28397;44.552;-0.848;2023-07-22T05:58:43;16.90;99.90
42743;DHT22;28397;44.552;-0.848;2023-07-22T06:01:09;17.00;99.90
42743;DHT22;28397;44.552;-0.848;2023-07-22T06:03:35;17.10;99.90
42743;DHT22;28397;44.552;-0.848;2023-07-22T06:06:01;17.10;99.90
42743;DHT22;28397;44.552;-0.848;2023-07-22T06:08:27;17.30;99.90
42743;DHT22;28397;44.552;-0.848;2023-07-22T06:10:52;17.60;99.90
42743;DHT22;28397;44.552;-0.848;2023-07-22T06:13:18;17.80;99.90
42743;DHT22;28397;44.552;-0.848;2023-07-22T06:15:44;18.00;99.90
42743;DHT22;28397;44.552;-0.848;2023-07-22T06:18:09;18.10;99.90
42743;DHT22;28397;44.552;-0.848;2023-07-22T06:20:35;18.20;99.90
42743;DHT22;28397;44.552;-0.848;2023-07-22T06:23:02;18.30;99.90
42743;DHT22;28397;44.552;-0.848;2023-07-22T06:25:27;18.50;99.90
42743;DHT22;28397;44.552;-0.848;2023-07-22T06:27:53;18.60;99.90
42743;DHT22;28397;44.552;-0.848;2023-07-22T06:30:19;18.60;99.90
42743;DHT22;28397;44.552;-0.848;2023-07-22T06:32:45;18.70;99.90
42743;DHT22;28397;44.552;-0.848;2023-07-22T06:35:11;18.70;99.90
42743;DHT22;28397;44.552;-0.848;2023-07-22T06:37:36;18.70;99.90
42743;DHT22;28397;44.552;-0.848;2023-07-22T06:40:02;18.60;99.90
42743;DHT22;28397;44.552;-0.848;2023-07-22T06:42:29;18.50;99.90
42743;DHT22;28397;44.552;-0.848;2023-07-22T06:44:55;18.50;99.90
42743;DHT22;28397;44.552;-0.848;2023-07-22T06:47:21;18.40;99.90
42743;DHT22;28397;44.552;-0.848;2023-07-22T06:49:46;18.40;99.90
42743;DHT22;28397;44.552;-0.848;2023-07-22T06:52:12;18.50;99.90
42743;DHT22;28397;44.552;-0.848;2023-07-22T06:54:38;18.50;99.90
42743;DHT22;28397;44.552;-0.848;2023-07-22T06:57:04;18.50;99.90
42743;DHT22;28397;44.552;-0.848;2023-07-22T06:59:31;18.60;99.90
42743;DHT22;28397;44.552;-0.848;2023-07-22T07:01:57;18.60;99.90
42743;DHT22;28397;44.552;-0.848;2023-07-22T07:04:23;18.50;99.90
42743;DHT22;28397;44.552;-0.848;2023-07-22T07:06:49;18.50;99.90
42743;DHT22;28397;44.552;-0.848;2023-07-22T07:09:15;18.60;99.90
42743;DHT22;28397;44.552;-0.848;2023-07-22T07:11:41;18.70;99.90
42743;DHT22;28397;44.552;-0.848;2023-07-22T07:14:07;18.70;99.90
42743;DHT22;28397;44.552;-0.848;2023-07-22T07:16:33;18.80;99.90
42743;DHT22;28397;44.552;-0.848;2023-07-22T07:19:00;18.90;99.90
42743;DHT22;28397;44.552;-0.848;2023-07-22T07:21:26;18.90;99.90
42743;DHT22;28397;44.552;-0.848;2023-07-22T07:23:53;18.90;99.90
42743;DHT22;28397;44.552;-0.848;2023-07-22T07:26:19;19.10;99.90
42743;DHT22;28397;44.552;-0.848;2023-07-22T07:28:47;19.20;99.90
42743;DHT22;28397;44.552;-0.848;2023-07-22T07:31:13;19.40;99.90
42743;DHT22;28397;44.552;-0.848;2023-07-22T07:33:39;19.50;99.90
42743;DHT22;28397;44.552;-0.848;2023-07-22T07:36:05;19.50;99.90
42743;DHT22;28397;44.552;-0.848;2023-07-22T07:38:31;19.70;99.90
42743;DHT22;28397;44.552;-0.848;2023-07-22T07:41:04;19.80;99.90
42743;DHT22;28397;44.552;-0.848;2023-07-22T07:43:31;19.80;99.90
42743;DHT22;28397;44.552;-0.848;2023-07-22T07:46:35;19.90;99.90
42743;DHT22;28397;44.552;-0.848;2023-07-22T07:49:01;20.00;99.90
42743;DHT22;28397;44.552;-0.848;2023-07-22T07:51:29;20.10;99.90
42743;DHT22;28397;44.552;-0.848;2023-07-22T07:53:55;20.10;99.90
42743;DHT22;28397;44.552;-0.848;2023-07-22T07:56:22;20.10;99.90
42743;DHT22;28397;44.552;-0.848;2023-07-22T07:58:49;20.00;99.90
42743;DHT22;28397;44.552;-0.848;2023-07-22T08:01:15;19.90;99.90
42743;DHT22;28397;44.552;-0.848;2023-07-22T08:03:41;19.90;99.90
42743;DHT22;28397;44.552;-0.848;2023-07-22T08:06:07;19.90;99.90
42743;DHT22;28397;44.552;-0.848;2023-07-22T08:08:34;19.90;99.90
42743;DHT22;28397;44.552;-0.848;2023-07-22T08:11:11;19.90;99.90
42743;DHT22;28397;44.552;-0.848;2023-07-22T08:13:38;19.90;99.90
42743;DHT22;28397;44.552;-0.848;2023-07-22T08:16:06;19.90;99.90
42743;DHT22;28397;44.552;-0.848;2023-07-22T08:18:32;19.90;99.90
42743;DHT22;28397;44.552;-0.848;2023-07-22T08:20:58;19.90;99.90
42743;DHT22;28397;44.552;-0.848;2023-07-22T08:23:24;19.90;99.90
42743;DHT22;28397;44.552;-0.848;2023-07-22T08:25:50;20.00;99.90
42743;DHT22;28397;44.552;-0.848;2023-07-22T08:28:16;20.00;99.90
42743;DHT22;28397;44.552;-0.848;2023-07-22T08:30:41;20.00;99.90
42743;DHT22;28397;44.552;-0.848;2023-07-22T08:33:09;20.00;99.90
42743;DHT22;28397;44.552;-0.848;2023-07-22T08:35:35;20.00;99.90
42743;DHT22;28397;44.552;-0.848;2023-07-22T08:38:02;20.00;99.90
42743;DHT22;28397;44.552;-0.848;2023-07-22T08:40:38;20.00;99.90
42743;DHT22;28397;44.552;-0.848;2023-07-22T08:43:07;20.40;99.90
42743;DHT22;28397;44.552;-0.848;2023-07-22T08:45:35;20.70;99.90
42743;DHT22;28397;44.552;-0.848;2023-07-22T08:48:09;20.90;99.90
42743;DHT22;28397;44.552;-0.848;2023-07-22T08:50:43;20.90;99.90
42743;DHT22;28397;44.552;-0.848;2023-07-22T08:53:10;21.10;99.90
42743;DHT22;28397;44.552;-0.848;2023-07-22T08:55:37;21.20;99.90
42743;DHT22;28397;44.552;-0.848;2023-07-22T08:58:09;21.40;99.90
42743;DHT22;28397;44.552;-0.848;2023-07-22T09:00:36;21.40;99.90
42743;DHT22;28397;44.552;-0.848;2023-07-22T09:03:02;21.50;99.90
42743;DHT22;28397;44.552;-0.848;2023-07-22T09:05:28;21.50;99.90
42743;DHT22;28397;44.552;-0.848;2023-07-22T09:07:56;21.50;99.90
42743;DHT22;28397;44.552;-0.848;2023-07-22T09:10:23;21.60;99.90
42743;DHT22;28397;44.552;-0.848;2023-07-22T09:12:51;21.70;99.90
42743;DHT22;28397;44.552;-0.848;2023-07-22T09:15:16;21.60;99.90
42743;DHT22;28397;44.552;-0.848;2023-07-22T09:17:44;21.40;99.90
42743;DHT22;28397;44.552;-0.848;2023-07-22T09:20:12;21.40;99.90
42743;DHT22;28397;44.552;-0.848;2023-07-22T09:22:46;21.30;99.90
42743;DHT22;28397;44.552;-0.848;2023-07-22T09:27:43;21.30;99.90
42743;DHT22;28397;44.552;-0.848;2023-07-22T09:30:33;21.40;99.90
42743;DHT22;28397;44.552;-0.848;2023-07-22T09:33:02;21.50;99.90
42743;DHT22;28397;44.552;-0.848;2023-07-22T09:38:08;21.40;99.90
42743;DHT22;28397;44.552;-0.848;2023-07-22T09:40:34;21.50;99.90
42743;DHT22;28397;44.552;-0.848;2023-07-22T09:43:03;21.40;99.90
42743;DHT22;28397;44.552;-0.848;2023-07-22T09:45:30;21.40;99.90
42743;DHT22;28397;44.552;-0.848;2023-07-22T09:47:56;21.50;99.90
42743;DHT22;28397;44.552;-0.848;2023-07-22T09:50:24;21.50;99.90
42743;DHT22;28397;44.552;-0.848;2023-07-22T09:52:55;21.50;99.90
42743;DHT22;28397;44.552;-0.848;2023-07-22T09:55:23;21.60;99.90
42743;DHT22;28397;44.552;-0.848;2023-07-22T09:58:02;21.60;99.90
42743;DHT22;28397;44.552;-0.848;2023-07-22T10:00:30;22.00;99.90
42743;DHT22;28397;44.552;-0.848;2023-07-22T10:02:58;22.20;99.90
42743;DHT22;28397;44.552;-0.848;2023-07-22T10:05:25;22.40;99.90
42743;DHT22;28397;44.552;-0.848;2023-07-22T10:07:55;22.60;99.90
42743;DHT22;28397;44.552;-0.848;2023-07-22T10:10:25;22.60;99.90
42743;DHT22;28397;44.552;-0.848;2023-07-22T10:12:53;22.80;99.90
42743;DHT22;28397;44.552;-0.848;2023-07-22T10:15:19;22.90;99.90
42743;DHT22;28397;44.552;-0.848;2023-07-22T10:17:45;22.80;99.90
42743;DHT22;28397;44.552;-0.848;2023-07-22T10:20:13;22.90;99.90
42743;DHT22;28397;44.552;-0.848;2023-07-22T10:22:43;23.00;99.90
42743;DHT22;28397;44.552;-0.848;2023-07-22T10:25:20;23.00;99.90
42743;DHT22;28397;44.552;-0.848;2023-07-22T10:27:47;23.00;99.90
42743;DHT22;28397;44.552;-0.848;2023-07-22T10:30:14;23.00;99.90
42743;DHT22;28397;44.552;-0.848;2023-07-22T10:32:46;22.90;99.90
42743;DHT22;28397;44.552;-0.848;2023-07-22T10:37:55;22.70;99.90
42743;DHT22;28397;44.552;-0.848;2023-07-22T10:40:28;22.70;99.90
42743;DHT22;28397;44.552;-0.848;2023-07-22T10:43:04;22.60;99.90
42743;DHT22;28397;44.552;-0.848;2023-07-22T10:45:32;22.60;99.90
42743;DHT22;28397;44.552;-0.848;2023-07-22T10:48:10;22.60;99.90
42743;DHT22;28397;44.552;-0.848;2023-07-22T10:50:47;22.60;99.90
42743;DHT22;28397;44.552;-0.848;2023-07-22T10:53:13;22.70;99.90
42743;DHT22;28397;44.552;-0.848;2023-07-22T10:56:14;22.70;99.90
42743;DHT22;28397;44.552;-0.848;2023-07-22T11:06:35;23.00;99.90
42743;DHT22;28397;44.552;-0.848;2023-07-22T11:09:01;22.90;99.90
42743;DHT22;28397;44.552;-0.848;2023-07-22T11:11:45;22.60;99.90
42743;DHT22;28397;44.552;-0.848;2023-07-22T11:14:17;22.70;99.90
42743;DHT22;28397;44.552;-0.848;2023-07-22T11:16:45;23.00;99.90
42743;DHT22;28397;44.552;-0.848;2023-07-22T11:19:13;23.30;99.90
42743;DHT22;28397;44.552;-0.848;2023-07-22T11:21:39;23.60;99.90
42743;DHT22;28397;44.552;-0.848;2023-07-22T11:24:06;23.80;99.90
42743;DHT22;28397;44.552;-0.848;2023-07-22T11:26:32;23.70;99.90
42743;DHT22;28397;44.552;-0.848;2023-07-22T11:29:00;24.00;99.90
42743;DHT22;28397;44.552;-0.848;2023-07-22T11:31:33;23.90;99.90
42743;DHT22;28397;44.552;-0.848;2023-07-22T11:33:59;24.10;99.90
42743;DHT22;28397;44.552;-0.848;2023-07-22T11:36:28;24.20;99.90
42743;DHT22;28397;44.552;-0.848;2023-07-22T11:39:00;24.40;99.90
42743;DHT22;28397;44.552;-0.848;2023-07-22T11:41:27;24.50;99.90
42743;DHT22;28397;44.552;-0.848;2023-07-22T11:43:53;24.40;99.90
42743;DHT22;28397;44.552;-0.848;2023-07-22T11:46:19;24.50;99.90
42743;DHT22;28397;44.552;-0.848;2023-07-22T11:48:52;24.60;99.90
42743;DHT22;28397;44.552;-0.848;2023-07-22T11:51:19;24.50;99.90
42743;DHT22;28397;44.552;-0.848;2023-07-22T11:53:49;24.60;99.90
42743;DHT22;28397;44.552;-0.848;2023-07-22T11:56:26;24.40;99.90
42743;DHT22;28397;44.552;-0.848;2023-07-22T11:58:55;24.20;99.90
42743;DHT22;28397;44.552;-0.848;2023-07-22T12:01:22;24.20;99.90
42743;DHT22;28397;44.552;-0.848;2023-07-22T12:03:50;24.00;99.90
42743;DHT22;28397;44.552;-0.848;2023-07-22T12:06:20;24.10;99.90
42743;DHT22;28397;44.552;-0.848;2023-07-22T12:08:51;24.20;99.90
42743;DHT22;28397;44.552;-0.848;2023-07-22T12:11:19;24.40;99.90
42743;DHT22;28397;44.552;-0.848;2023-07-22T12:13:45;24.20;99.90
42743;DHT22;28397;44.552;-0.848;2023-07-22T12:16:12;24.10;99.90
42743;DHT22;28397;44.552;-0.848;2023-07-22T12:18:44;24.40;99.90
42743;DHT22;28397;44.552;-0.848;2023-07-22T12:21:11;24.50;99.90
42743;DHT22;28397;44.552;-0.848;2023-07-22T12:23:37;24.40;99.90
42743;DHT22;28397;44.552;-0.848;2023-07-22T12:26:06;24.50;99.90
42743;DHT22;28397;44.552;-0.848;2023-07-22T12:28:32;24.50;99.90
42743;DHT22;28397;44.552;-0.848;2023-07-22T12:30:58;24.60;99.90
42743;DHT22;28397;44.552;-0.848;2023-07-22T12:33:24;24.60;99.90
42743;DHT22;28397;44.552;-0.848;2023-07-22T12:35:50;24.60;99.90
42743;DHT22;28397;44.552;-0.848;2023-07-22T12:38:16;24.60;99.90
42743;DHT22;28397;44.552;-0.848;2023-07-22T12:40:42;24.80;99.90
42743;DHT22;28397;44.552;-0.848;2023-07-22T12:43:08;24.80;99.90
42743;DHT22;28397;44.552;-0.848;2023-07-22T12:45:34;24.70;99.90
42743;DHT22;28397;44.552;-0.848;2023-07-22T12:47:59;24.70;99.90
42743;DHT22;28397;44.552;-0.848;2023-07-22T12:50:25;25.00;99.90
42743;DHT22;28397;44.552;-0.848;2023-07-22T12:52:51;25.00;99.90
42743;DHT22;28397;44.552;-0.848;2023-07-22T12:55:16;25.00;99.90
42743;DHT22;28397;44.552;-0.848;2023-07-22T12:57:42;25.10;99.90
42743;DHT22;28397;44.552;-0.848;2023-07-22T13:00:08;25.00;99.90
42743;DHT22;28397;44.552;-0.848;2023-07-22T13:02:37;25.30;99.90
42743;DHT22;28397;44.552;-0.848;2023-07-22T13:05:03;25.20;99.90
42743;DHT22;28397;44.552;-0.848;2023-07-22T13:07:30;25.00;99.90
42743;DHT22;28397;44.552;-0.848;2023-07-22T13:09:55;24.90;99.90
42743;DHT22;28397;44.552;-0.848;2023-07-22T13:12:23;24.80;99.90
42743;DHT22;28397;44.552;-0.848;2023-07-22T13:14:48;24.80;99.90
42743;DHT22;28397;44.552;-0.848;2023-07-22T13:17:14;24.80;99.90
42743;DHT22;28397;44.552;-0.848;2023-07-22T13:19:40;24.80;99.90
42743;DHT22;28397;44.552;-0.848;2023-07-22T13:22:05;24.70;99.90
42743;DHT22;28397;44.552;-0.848;2023-07-22T13:24:31;24.80;99.90
42743;DHT22;28397;44.552;-0.848;2023-07-22T13:26:57;24.90;99.90
42743;DHT22;28397;44.552;-0.848;2023-07-22T13:29:22;24.80;99.90
42743;DHT22;28397;44.552;-0.848;2023-07-22T13:31:48;24.70;99.90
42743;DHT22;28397;44.552;-0.848;2023-07-22T13:34:13;24.80;99.90
42743;DHT22;28397;44.552;-0.848;2023-07-22T13:36:39;24.90;99.90
42743;DHT22;28397;44.552;-0.848;2023-07-22T13:39:05;25.00;99.90
42743;DHT22;28397;44.552;-0.848;2023-07-22T13:41:31;25.10;99.90
42743;DHT22;28397;44.552;-0.848;2023-07-22T13:43:56;24.90;99.90
42743;DHT22;28397;44.552;-0.848;2023-07-22T13:46:22;24.90;99.90
42743;DHT22;28397;44.552;-0.848;2023-07-22T13:48:48;24.90;99.90
42743;DHT22;28397;44.552;-0.848;2023-07-22T13:51:14;24.90;99.90
42743;DHT22;28397;44.552;-0.848;2023-07-22T13:53:39;25.10;99.90
42743;DHT22;28397;44.552;-0.848;2023-07-22T13:56:05;25.40;99.90
42743;DHT22;28397;44.552;-0.848;2023-07-22T13:58:30;25.70;99.90
42743;DHT22;28397;44.552;-0.848;2023-07-22T14:00:56;25.60;99.90
42743;DHT22;28397;44.552;-0.848;2023-07-22T14:03:22;25.60;99.90
42743;DHT22;28397;44.552;-0.848;2023-07-22T14:05:47;25.80;99.90
42743;DHT22;28397;44.552;-0.848;2023-07-22T14:08:13;25.80;99.90
42743;DHT22;28397;44.552;-0.848;2023-07-22T14:10:39;26.00;99.90
42743;DHT22;28397;44.552;-0.848;2023-07-22T14:13:04;26.30;99.90
42743;DHT22;28397;44.552;-0.848;2023-07-22T14:15:30;26.10;99.90
42743;DHT22;28397;44.552;-0.848;2023-07-22T14:17:56;26.10;99.90
42743;DHT22;28397;44.552;-0.848;2023-07-22T14:20:22;26.60;99.90
42743;DHT22;28397;44.552;-0.848;2023-07-22T14:22:48;26.70;99.90
42743;DHT22;28397;44.552;-0.848;2023-07-22T14:25:15;26.80;99.90
42743;DHT22;28397;44.552;-0.848;2023-07-22T14:27:41;26.80;99.90
42743;DHT22;28397;44.552;-0.848;2023-07-22T14:30:08;26.80;99.90
42743;DHT22;28397;44.552;-0.848;2023-07-22T14:32:34;26.60;99.90
42743;DHT22;28397;44.552;-0.848;2023-07-22T14:35:00;26.60;99.90
42743;DHT22;28397;44.552;-0.848;2023-07-22T14:37:25;26.60;99.90
42743;DHT22;28397;44.552;-0.848;2023-07-22T14:39:51;26.40;99.90
42743;DHT22;28397;44.552;-0.848;2023-07-22T14:42:16;26.30;99.90
42743;DHT22;28397;44.552;-0.848;2023-07-22T14:44:42;26.10;99.90
42743;DHT22;28397;44.552;-0.848;2023-07-22T14:47:08;26.20;99.90
42743;DHT22;28397;44.552;-0.848;2023-07-22T14:49:34;26.30;99.90
42743;DHT22;28397;44.552;-0.848;2023-07-22T14:51:59;26.60;99.90
42743;DHT22;28397;44.552;-0.848;2023-07-22T14:54:25;26.40;99.90
42743;DHT22;28397;44.552;-0.848;2023-07-22T14:56:50;26.20;99.90
42743;DHT22;28397;44.552;-0.848;2023-07-22T14:59:16;26.10;99.90
42743;DHT22;28397;44.552;-0.848;2023-07-22T15:01:42;26.60;99.90
42743;DHT22;28397;44.552;-0.848;2023-07-22T15:04:08;26.80;99.90
42743;DHT22;28397;44.552;-0.848;2023-07-22T15:06:35;27.00;99.90
42743;DHT22;28397;44.552;-0.848;2023-07-22T15:09:02;26.60;99.90
42743;DHT22;28397;44.552;-0.848;2023-07-22T15:11:28;26.50;99.90
42743;DHT22;28397;44.552;-0.848;2023-07-22T15:13:53;26.90;99.90
42743;DHT22;28397;44.552;-0.848;2023-07-22T15:16:19;26.80;99.90
42743;DHT22;28397;44.552;-0.848;2023-07-22T15:18:45;27.30;99.90
42743;DHT22;28397;44.552;-0.848;2023-07-22T15:21:10;27.30;99.90
42743;DHT22;28397;44.552;-0.848;2023-07-22T15:23:36;27.30;99.90
42743;DHT22;28397;44.552;-0.848;2023-07-22T15:26:02;27.20;99.90
42743;DHT22;28397;44.552;-0.848;2023-07-22T15:28:27;27.50;99.90
42743;DHT22;28397;44.552;-0.848;2023-07-22T15:30:53;27.50;99.90